createdAt,value
2019-05-14T00:00:48.181Z,56.82
2019-05-14T00:01:48.171Z,56.71
2019-05-14T00:02:48.153Z,56.20
2019-05-14T00:03:48.152Z,56.71
2019-05-14T00:04:48.144Z,57.43
2019-05-14T00:05:48.132Z,56.82
2019-05-14T00:06:48.110Z,56.51
2019-05-14T00:07:48.103Z,56.20
2019-05-14T00:08:48.087Z,56.74
2019-05-14T00:09:48.133Z,55.92
2019-05-14T00:10:48.066Z,56.13
2019-05-14T00:11:48.069Z,56.82
2019-05-14T00:12:48.051Z,56.84
2019-05-14T00:13:48.035Z,56.74
2019-05-14T00:14:48.054Z,57.76
2019-05-14T00:15:48.030Z,57.97
2019-05-14T00:16:48.009Z,57.56
2019-05-14T00:17:48.001Z,57.15
2019-05-14T00:18:47.989Z,57.35
2019-05-14T00:19:47.970Z,57.66
2019-05-14T00:20:47.973Z,57.46
2019-05-14T00:21:47.960Z,57.15
2019-05-14T00:22:47.947Z,57.56
2019-05-14T00:23:47.932Z,57.46
2019-05-14T00:24:47.921Z,57.05
2019-05-14T00:25:47.922Z,57.25
2019-05-14T00:26:47.918Z,57.35
2019-05-14T00:27:47.888Z,57.25
2019-05-14T00:28:47.884Z,57.18
2019-05-14T00:29:47.870Z,56.87
2019-05-14T00:30:47.866Z,58.10
2019-05-14T00:31:47.856Z,58.20
2019-05-14T00:32:47.837Z,57.89
2019-05-14T00:33:47.858Z,57.38
2019-05-14T00:34:47.809Z,58.00
2019-05-14T00:35:47.799Z,57.59
2019-05-14T00:36:47.791Z,57.38
2019-05-14T00:37:47.777Z,58.30
2019-05-14T00:38:47.775Z,57.59
2019-05-14T00:39:47.769Z,57.18
2019-05-14T00:40:47.750Z,57.38
2019-05-14T00:41:47.762Z,58.03
2019-05-14T00:42:47.729Z,58.12
2019-05-14T00:43:47.717Z,57.71
2019-05-14T00:44:54.521Z,57.71
2019-05-14T00:45:50.925Z,57.31
2019-05-14T00:46:47.682Z,58.12
2019-05-14T00:47:47.679Z,57.82
2019-05-14T00:48:47.659Z,58.05
2019-05-14T00:49:47.649Z,58.15
2019-05-14T00:50:47.639Z,58.03
2019-05-14T00:51:47.628Z,57.84
2019-05-14T00:52:47.630Z,57.20
2019-05-14T00:53:47.612Z,57.00
2019-05-14T00:54:47.611Z,57.20
2019-05-14T00:55:47.590Z,57.20
2019-05-14T00:56:47.574Z,57.31
2019-05-14T00:57:47.571Z,57.23
2019-05-14T00:58:47.560Z,57.84
2019-05-14T00:59:47.551Z,58.15
2019-05-14T01:00:47.543Z,57.84
2019-05-14T01:01:47.533Z,58.67
2019-05-14T01:02:47.526Z,58.36
2019-05-14T01:03:47.505Z,57.64
2019-05-14T01:04:47.495Z,58.56
2019-05-14T01:05:47.486Z,57.64
2019-05-14T01:06:47.473Z,58.36
2019-05-14T01:07:47.468Z,58.46
2019-05-14T01:08:47.453Z,58.56
2019-05-14T01:09:47.445Z,58.36
2019-05-14T01:10:47.424Z,58.56
2019-05-14T01:11:47.423Z,58.87
2019-05-14T01:12:47.409Z,58.69
2019-05-14T01:13:47.398Z,58.05
2019-05-14T01:14:47.396Z,59.20
2019-05-14T01:15:47.372Z,58.28
2019-05-14T01:16:47.367Z,58.90
2019-05-14T01:17:47.363Z,58.39
2019-05-14T01:18:47.347Z,58.49
2019-05-14T01:19:47.334Z,58.46
2019-05-14T01:20:47.324Z,58.87
2019-05-14T01:21:47.311Z,58.46
2019-05-14T01:22:47.297Z,58.80
2019-05-14T01:23:47.295Z,58.18
2019-05-14T01:24:47.281Z,58.77
2019-05-14T01:25:47.270Z,58.56
2019-05-14T01:26:47.255Z,59.28
2019-05-14T01:27:47.253Z,58.77
2019-05-14T01:28:47.279Z,58.67
2019-05-14T01:29:47.229Z,59.28
2019-05-14T01:30:47.212Z,59.11
2019-05-14T01:31:47.209Z,58.56
2019-05-14T01:32:47.192Z,59.62
2019-05-14T01:33:47.189Z,58.90
2019-05-14T01:34:47.183Z,59.72
2019-05-14T01:35:47.159Z,59.41
2019-05-14T01:36:47.156Z,59.62
2019-05-14T01:37:47.152Z,59.72
2019-05-14T01:38:47.127Z,59.52
2019-05-14T01:39:47.129Z,59.41
2019-05-14T01:40:47.109Z,59.72
2019-05-14T01:41:47.102Z,59.52
2019-05-14T01:42:47.090Z,59.52
2019-05-14T01:43:47.073Z,59.72
2019-05-14T01:44:47.081Z,60.23
2019-05-14T01:45:47.060Z,60.13
2019-05-14T01:46:47.048Z,60.33
2019-05-14T01:47:47.037Z,60.44
2019-05-14T01:48:47.023Z,60.64
2019-05-14T01:49:47.019Z,59.92
2019-05-14T01:50:47.007Z,60.03
2019-05-14T01:51:46.995Z,60.33
2019-05-14T01:52:46.979Z,60.13
2019-05-14T01:53:46.973Z,60.13
2019-05-14T01:54:46.985Z,60.47
2019-05-14T01:55:46.952Z,60.64
2019-05-14T01:56:46.941Z,60.13
2019-05-14T01:57:46.935Z,60.36
2019-05-14T01:58:46.918Z,59.85
2019-05-14T01:59:46.909Z,60.57
2019-05-14T02:00:46.903Z,60.16
2019-05-14T02:01:46.886Z,60.26
2019-05-14T02:02:46.877Z,60.03
2019-05-14T02:03:46.868Z,60.13
2019-05-14T02:04:46.853Z,60.36
2019-05-14T02:05:46.847Z,60.67
2019-05-14T02:06:46.860Z,60.36
2019-05-14T02:07:46.817Z,60.36
2019-05-14T02:08:46.810Z,60.36
2019-05-14T02:09:46.795Z,60.47
2019-05-14T02:10:46.823Z,60.98
2019-05-14T02:11:46.781Z,60.88
2019-05-14T02:12:46.768Z,60.88
2019-05-14T02:13:48.432Z,60.36
2019-05-14T02:14:46.741Z,60.88
2019-05-14T02:15:46.738Z,60.98
2019-05-14T02:16:46.728Z,60.36
2019-05-14T02:17:46.710Z,60.49
2019-05-14T02:18:46.698Z,60.36
2019-05-14T02:19:46.686Z,60.80
2019-05-14T02:20:46.680Z,60.70
2019-05-14T02:21:46.681Z,60.70
2019-05-14T02:22:46.655Z,61.42
2019-05-14T02:23:46.653Z,61.83
2019-05-14T02:24:46.638Z,62.04
2019-05-14T02:25:46.624Z,62.55
2019-05-14T02:26:46.612Z,62.16
2019-05-14T02:27:46.615Z,62.78
2019-05-14T02:28:46.594Z,62.16
2019-05-14T02:29:46.585Z,62.48
2019-05-14T02:30:55.913Z,62.78
2019-05-14T02:31:50.464Z,62.58
2019-05-14T02:32:49.581Z,62.58
2019-05-14T02:33:50.016Z,62.88
2019-05-14T02:34:49.729Z,62.78
2019-05-14T02:35:49.350Z,62.99
2019-05-14T02:36:49.567Z,62.99
2019-05-14T02:37:50.177Z,62.78
2019-05-14T02:38:49.064Z,62.99
2019-05-14T02:39:49.891Z,63.20
2019-05-14T02:40:49.304Z,62.55
2019-05-14T02:41:49.653Z,62.96
2019-05-14T02:42:49.468Z,62.96
2019-05-14T02:43:49.909Z,62.75
2019-05-14T02:44:48.961Z,62.96
2019-05-14T02:46:02.183Z,62.85
2019-05-14T02:46:50.272Z,62.75
2019-05-14T02:47:49.391Z,63.27
2019-05-14T02:48:48.961Z,62.78
2019-05-14T02:49:49.798Z,63.78
2019-05-14T02:50:49.210Z,63.09
2019-05-14T02:51:50.083Z,63.40
2019-05-14T02:52:49.426Z,63.29
2019-05-14T02:53:49.588Z,62.99
2019-05-14T02:54:49.416Z,63.50
2019-05-14T02:55:46.304Z,63.09
2019-05-14T02:56:49.372Z,63.09
2019-05-14T02:57:46.279Z,63.40
2019-05-14T02:58:49.612Z,63.09
2019-05-14T02:59:46.280Z,62.88
2019-05-14T03:00:49.002Z,63.09
2019-05-14T03:01:49.418Z,63.29
2019-05-14T03:02:49.165Z,63.20
2019-05-14T03:03:49.260Z,63.40
2019-05-14T03:04:46.214Z,63.71
2019-05-14T03:05:49.257Z,63.09
2019-05-14T03:06:46.189Z,63.09
2019-05-14T03:07:49.720Z,63.50
2019-05-14T03:08:49.209Z,63.81
2019-05-14T03:09:46.162Z,64.12
2019-05-14T03:10:49.815Z,64.32
2019-05-14T03:11:48.565Z,64.32
2019-05-14T03:12:49.214Z,64.43
2019-05-14T03:13:49.294Z,64.63
2019-05-14T03:14:46.108Z,64.73
2019-05-14T03:15:46.084Z,64.73
2019-05-14T03:16:49.184Z,64.63
2019-05-14T03:17:49.181Z,65.17
2019-05-14T03:18:46.060Z,65.28
2019-05-14T03:19:49.321Z,65.48
2019-05-14T03:20:49.784Z,65.48
2019-05-14T03:21:46.035Z,65.80
2019-05-14T03:23:02.006Z,65.89
2019-05-14T03:23:49.643Z,65.59
2019-05-14T03:24:53.669Z,65.69
2019-05-14T03:25:49.102Z,65.59
2019-05-14T03:26:45.987Z,65.59
2019-05-14T03:27:49.417Z,66.00
2019-05-14T03:28:49.269Z,66.10
2019-05-14T03:29:45.937Z,66.20
2019-05-14T03:30:51.420Z,66.20
2019-05-14T03:31:51.967Z,66.31
2019-05-14T03:32:52.084Z,66.31
2019-05-14T03:33:52.131Z,66.20
2019-05-14T03:34:52.196Z,66.51
2019-05-14T03:35:56.209Z,66.41
2019-05-14T03:36:51.795Z,66.61
2019-05-14T03:37:49.657Z,67.03
2019-05-14T03:38:45.849Z,67.16
2019-05-14T03:39:49.175Z,66.93
2019-05-14T03:40:45.826Z,67.23
2019-05-14T03:41:45.813Z,66.61
2019-05-14T03:42:48.791Z,66.61
2019-05-14T03:43:45.783Z,67.13
2019-05-14T03:44:48.783Z,66.82
2019-05-14T03:45:45.771Z,67.44
2019-05-14T03:46:54.886Z,67.16
2019-05-14T03:47:50.130Z,66.93
2019-05-14T03:48:49.029Z,67.23
2019-05-14T03:49:45.738Z,66.64
2019-05-14T03:50:49.232Z,67.54
2019-05-14T03:51:45.711Z,67.54
2019-05-14T03:52:45.697Z,67.23
2019-05-14T03:53:56.885Z,67.33
2019-05-14T03:54:49.638Z,67.65
2019-05-14T03:55:45.663Z,67.23
2019-05-14T03:56:45.658Z,67.47
2019-05-14T03:57:45.637Z,67.65
2019-05-14T03:58:45.668Z,67.75
2019-05-14T03:59:45.652Z,67.44
2019-05-14T04:00:45.606Z,67.23
2019-05-14T04:01:45.590Z,67.23
2019-05-14T04:02:45.582Z,67.23
2019-05-14T04:03:45.575Z,67.33
2019-05-14T04:04:45.573Z,67.23
2019-05-14T04:05:48.403Z,67.75
2019-05-14T04:06:45.541Z,67.51
2019-05-14T04:07:45.533Z,67.82
2019-05-14T04:08:45.528Z,68.23
2019-05-14T04:09:49.063Z,67.41
2019-05-14T04:10:52.686Z,67.51
2019-05-14T04:11:49.922Z,67.82
2019-05-14T04:12:45.482Z,67.30
2019-05-14T04:13:45.470Z,67.61
2019-05-14T04:14:45.497Z,67.20
2019-05-14T04:15:45.441Z,67.30
2019-05-14T04:16:59.898Z,66.96
2019-05-14T04:17:49.842Z,67.48
2019-05-14T04:18:45.407Z,67.68
2019-05-14T04:19:45.404Z,68.10
2019-05-14T04:20:45.422Z,67.38
2019-05-14T04:21:45.377Z,67.17
2019-05-14T04:22:45.375Z,67.07
2019-05-14T04:23:45.363Z,67.58
2019-05-14T04:24:45.343Z,67.17
2019-05-14T04:25:45.333Z,67.24
2019-05-14T04:27:00.972Z,67.99
2019-05-14T04:27:49.145Z,67.24
2019-05-14T04:28:45.302Z,67.35
2019-05-14T04:29:45.297Z,67.44
2019-05-14T04:30:45.343Z,67.14
2019-05-14T04:31:45.274Z,67.24
2019-05-14T04:32:45.316Z,67.55
2019-05-14T04:33:45.259Z,66.63
2019-05-14T04:34:45.237Z,67.00
2019-05-14T04:35:45.234Z,66.83
2019-05-14T04:36:45.222Z,66.93
2019-05-14T04:37:45.212Z,66.90
2019-05-14T04:38:50.348Z,67.14
2019-05-14T04:39:46.182Z,67.21
2019-05-14T04:40:45.173Z,66.39
2019-05-14T04:41:45.169Z,67.08
2019-05-14T04:42:45.157Z,66.87
2019-05-14T04:43:45.164Z,66.90
2019-05-14T04:44:45.136Z,66.80
2019-05-14T04:45:45.121Z,66.36
2019-05-14T04:46:45.108Z,66.67
2019-05-14T04:47:45.107Z,66.25
2019-05-14T04:48:45.105Z,66.16
2019-05-14T04:49:45.086Z,66.16
2019-05-14T04:50:45.067Z,66.87
2019-05-14T04:51:45.055Z,66.67
2019-05-14T04:52:45.049Z,66.56
2019-05-14T04:53:45.047Z,66.77
2019-05-14T04:54:45.034Z,66.67
2019-05-14T04:55:45.012Z,67.05
2019-05-14T04:56:45.006Z,66.53
2019-05-14T04:57:44.994Z,66.56
2019-05-14T04:58:44.985Z,67.38
2019-05-14T04:59:45.007Z,67.08
2019-05-14T05:00:44.960Z,66.67
2019-05-14T05:01:44.959Z,66.63
2019-05-14T05:02:44.951Z,66.63
2019-05-14T05:03:44.934Z,66.63
2019-05-14T05:04:44.915Z,66.63
2019-05-14T05:05:44.914Z,66.53
2019-05-14T05:06:44.897Z,66.84
2019-05-14T05:07:44.897Z,66.67
2019-05-14T05:08:44.881Z,67.18
2019-05-14T05:09:44.890Z,66.56
2019-05-14T05:10:44.869Z,66.87
2019-05-14T05:11:44.841Z,66.56
2019-05-14T05:12:44.834Z,68.92
2019-05-14T05:13:44.818Z,68.92
2019-05-14T05:14:44.808Z,69.54
2019-05-14T05:15:44.813Z,68.51
2019-05-14T05:16:44.796Z,68.79
2019-05-14T05:17:51.872Z,68.55
2019-05-14T05:18:48.733Z,66.50
2019-05-14T05:19:45.877Z,66.40
2019-05-14T05:20:44.773Z,66.50
2019-05-14T05:21:44.732Z,66.09
2019-05-14T05:22:44.728Z,66.19
2019-05-14T05:23:44.724Z,66.50
2019-05-14T05:24:44.702Z,66.60
2019-05-14T05:25:44.705Z,67.08
2019-05-14T05:26:44.695Z,66.30
2019-05-14T05:27:44.669Z,66.50
2019-05-14T05:28:59.101Z,66.57
2019-05-14T05:29:45.649Z,66.98
2019-05-14T05:30:44.643Z,66.47
2019-05-14T05:31:44.627Z,66.88
2019-05-14T05:32:44.653Z,66.34
2019-05-14T05:33:44.611Z,66.44
2019-05-14T05:34:44.595Z,66.24
2019-05-14T05:35:44.590Z,66.24
2019-05-14T05:36:44.581Z,66.24
2019-05-14T05:37:44.562Z,65.80
2019-05-14T05:38:44.560Z,65.18
2019-05-14T05:39:44.540Z,65.39
2019-05-14T05:40:44.530Z,65.46
2019-05-14T05:41:44.522Z,64.74
2019-05-14T05:42:44.522Z,64.74
2019-05-14T05:43:44.507Z,65.05
2019-05-14T05:44:44.492Z,64.33
2019-05-14T05:45:44.480Z,65.05
2019-05-14T05:46:44.465Z,64.71
2019-05-14T05:47:56.982Z,65.02
2019-05-14T05:48:45.456Z,65.02
2019-05-14T05:49:44.434Z,64.99
2019-05-14T05:50:44.425Z,64.27
2019-05-14T05:51:44.416Z,64.20
2019-05-14T05:52:44.409Z,64.30
2019-05-14T05:53:44.404Z,64.61
2019-05-14T05:54:44.392Z,64.27
2019-05-14T05:55:44.369Z,64.27
2019-05-14T05:56:44.361Z,63.93
2019-05-14T05:57:44.351Z,63.86
2019-05-14T05:58:44.342Z,62.84
2019-05-14T05:59:44.337Z,62.74
2019-05-14T06:00:44.316Z,63.56
2019-05-14T06:01:46.466Z,63.66
2019-05-14T06:02:44.298Z,63.22
2019-05-14T06:03:44.288Z,63.04
2019-05-14T06:04:44.285Z,62.84
2019-05-14T06:05:44.266Z,63.66
2019-05-14T06:06:52.232Z,63.56
2019-05-14T06:07:52.265Z,62.74
2019-05-14T06:08:44.229Z,63.15
2019-05-14T06:09:44.246Z,62.95
2019-05-14T06:10:44.225Z,62.54
2019-05-14T06:11:44.202Z,66.01
2019-05-14T06:12:44.191Z,64.27
2019-05-14T06:13:44.183Z,63.66
2019-05-14T06:14:44.165Z,64.00
2019-05-14T06:15:48.474Z,64.64
2019-05-14T06:16:45.156Z,65.05
2019-05-14T06:17:44.141Z,64.84
2019-05-14T06:18:44.128Z,65.02
2019-05-14T06:19:44.116Z,65.02
2019-05-14T06:20:44.103Z,65.25
2019-05-14T06:21:44.099Z,65.05
2019-05-14T06:22:44.083Z,64.81
2019-05-14T06:23:44.073Z,64.92
2019-05-14T06:24:44.073Z,64.68
2019-05-14T06:25:44.075Z,64.27
2019-05-14T06:26:44.045Z,64.07
2019-05-14T06:27:44.030Z,63.86
2019-05-14T06:28:44.024Z,65.30
2019-05-14T06:29:44.012Z,64.89
2019-05-14T06:31:52.784Z,64.17
2019-05-14T06:32:52.751Z,63.93
2019-05-14T06:33:52.733Z,63.63
2019-05-14T06:34:52.745Z,62.51
2019-05-14T06:35:52.721Z,64.24
2019-05-14T06:36:52.752Z,64.55
2019-05-14T06:37:52.697Z,64.17
2019-05-14T06:38:52.685Z,64.96
2019-05-14T06:39:52.672Z,66.49
2019-05-14T06:40:52.659Z,64.34
2019-05-14T06:41:52.654Z,65.40
2019-05-14T06:42:52.655Z,65.50
2019-05-14T06:43:52.667Z,64.89
2019-05-14T06:44:52.626Z,64.99
2019-05-14T06:45:52.618Z,64.99
2019-05-14T06:46:53.004Z,64.71
2019-05-14T06:47:52.591Z,65.73
2019-05-14T06:48:52.590Z,66.04
2019-05-14T06:49:52.564Z,66.38
2019-05-14T06:50:52.553Z,66.89
2019-05-14T06:51:52.564Z,67.13
2019-05-14T06:52:52.561Z,66.51
2019-05-14T06:53:52.524Z,67.13
2019-05-14T06:54:52.516Z,67.77
2019-05-14T06:55:52.503Z,68.08
2019-05-14T06:56:52.505Z,68.08
2019-05-14T06:57:52.479Z,68.35
2019-05-14T06:58:52.469Z,67.84
2019-05-14T06:59:52.458Z,67.60
2019-05-14T07:00:52.444Z,66.96
2019-05-14T07:01:52.437Z,66.14
2019-05-14T07:02:52.447Z,66.55
2019-05-14T07:03:52.438Z,65.98
2019-05-14T07:04:52.403Z,64.86
2019-05-14T07:05:52.393Z,64.11
2019-05-14T07:06:52.382Z,63.90
2019-05-14T07:07:52.401Z,63.90
2019-05-14T07:08:52.882Z,62.88
2019-05-14T07:09:52.348Z,63.26
2019-05-14T07:10:52.343Z,62.55
2019-05-14T07:11:52.337Z,62.82
2019-05-14T07:12:52.327Z,62.29
2019-05-14T07:13:52.338Z,61.37
2019-05-14T07:14:52.300Z,60.42
2019-05-14T07:15:52.286Z,58.87
2019-05-14T07:16:52.289Z,58.08
2019-05-14T07:17:52.296Z,59.64
2019-05-14T07:18:54.168Z,60.55
2019-05-14T07:19:52.242Z,60.63
2019-05-14T07:20:52.253Z,59.20
2019-05-14T07:21:52.219Z,60.22
2019-05-14T07:22:52.215Z,59.71
2019-05-14T07:23:52.220Z,58.82
2019-05-14T07:24:52.196Z,59.56
2019-05-14T07:25:52.191Z,59.26
2019-05-14T07:26:52.168Z,59.33
2019-05-14T07:27:52.163Z,59.20
2019-05-14T07:28:52.149Z,59.20
2019-05-14T07:29:52.157Z,57.98
2019-05-14T07:30:52.127Z,58.97
2019-05-14T07:31:52.116Z,55.81
2019-05-14T07:32:52.114Z,55.28
2019-05-14T07:33:52.127Z,55.46
2019-05-14T07:34:52.099Z,56.16
2019-05-14T07:35:52.072Z,55.25
2019-05-14T07:36:52.065Z,54.94
2019-05-14T07:37:52.048Z,55.55
2019-05-14T07:38:52.056Z,55.66
2019-05-14T07:39:52.054Z,55.55
2019-05-14T07:40:52.032Z,55.25
2019-05-14T07:41:52.012Z,55.63
2019-05-14T07:42:51.999Z,55.71
2019-05-14T07:43:51.988Z,55.18
2019-05-14T07:44:51.977Z,54.72
2019-05-14T07:45:51.985Z,54.03
2019-05-14T07:46:51.954Z,54.33
2019-05-14T07:47:51.947Z,54.03
2019-05-14T07:49:04.411Z,53.83
2019-05-14T07:49:52.921Z,53.75
2019-05-14T07:50:52.273Z,54.18
2019-05-14T07:51:51.923Z,53.88
2019-05-14T07:52:51.886Z,53.70
2019-05-14T07:53:51.894Z,53.70
2019-05-14T07:54:51.863Z,54.24
2019-05-14T07:55:51.852Z,55.05
2019-05-14T07:56:53.052Z,55.55
2019-05-14T07:57:51.832Z,55.79
2019-05-14T07:58:51.825Z,55.46
2019-05-14T07:59:51.818Z,56.20
2019-05-14T08:00:51.805Z,55.68
2019-05-14T08:01:51.808Z,55.79
2019-05-14T08:02:51.795Z,55.46
2019-05-14T08:03:51.771Z,55.35
2019-05-14T08:04:51.756Z,54.87
2019-05-14T08:05:51.745Z,55.58
2019-05-14T08:06:51.741Z,55.00
2019-05-14T08:07:51.751Z,54.18
2019-05-14T08:08:51.714Z,55.00
2019-05-14T08:09:51.702Z,55.81
2019-05-14T08:10:51.697Z,55.63
2019-05-14T08:11:51.700Z,55.71
2019-05-14T08:12:51.692Z,55.10
2019-05-14T08:13:51.662Z,55.81
2019-05-14T08:15:13.075Z,55.48
2019-05-14T08:15:52.636Z,55.05
2019-05-14T08:16:51.632Z,53.96
2019-05-14T08:17:51.617Z,52.50
2019-05-14T08:18:51.624Z,52.61
2019-05-14T08:19:51.595Z,52.58
2019-05-14T08:20:51.584Z,51.42
2019-05-14T08:21:51.574Z,49.13
2019-05-14T08:22:51.568Z,47.26
2019-05-14T08:23:51.583Z,46.65
2019-05-14T08:24:51.564Z,47.61
2019-05-14T08:25:51.534Z,48.65
2019-05-14T08:26:51.526Z,49.66
2019-05-14T08:27:51.519Z,48.07
2019-05-14T08:28:51.516Z,46.98
2019-05-14T08:29:51.496Z,48.93
2019-05-14T08:30:51.476Z,48.14
2019-05-14T08:31:51.465Z,47.35
2019-05-14T08:32:51.457Z,47.35
2019-05-14T08:33:51.466Z,48.28
2019-05-14T08:34:51.498Z,49.10
2019-05-14T08:35:51.428Z,49.33
2019-05-14T08:36:51.412Z,49.33
2019-05-14T08:38:04.572Z,49.53
2019-05-14T08:38:52.391Z,49.84
2019-05-14T08:39:51.382Z,48.28
2019-05-14T08:40:51.399Z,48.24
2019-05-14T08:41:59.531Z,47.86
2019-05-14T08:42:52.353Z,48.28
2019-05-14T08:43:51.339Z,48.19
2019-05-14T08:44:51.677Z,47.67
2019-05-14T08:45:51.316Z,46.97
2019-05-14T08:46:51.311Z,48.19
2019-05-14T08:47:51.296Z,48.90
2019-05-14T08:48:51.303Z,47.75
2019-05-14T08:49:51.403Z,49.28
2019-05-14T08:50:51.278Z,49.69
2019-05-14T08:51:51.251Z,46.39
2019-05-14T08:52:51.247Z,45.58
2019-05-14T08:53:51.233Z,44.24
2019-05-14T08:55:05.279Z,45.23
2019-05-14T08:55:52.211Z,43.93
2019-05-14T08:56:51.197Z,42.07
2019-05-14T08:57:51.405Z,44.15
2019-05-14T08:58:51.187Z,44.80
2019-05-14T08:59:51.169Z,42.03
2019-05-14T09:00:51.177Z,40.66
2019-05-14T09:02:02.347Z,39.29
2019-05-14T09:02:52.131Z,37.88
2019-05-14T09:03:51.122Z,36.35
2019-05-14T09:04:53.796Z,37.43
2019-05-14T09:05:51.151Z,38.55
2019-05-14T09:06:51.097Z,39.01
2019-05-14T09:07:51.079Z,40.58
2019-05-14T09:08:51.069Z,41.12
2019-05-14T09:09:51.076Z,41.06
2019-05-14T09:10:51.056Z,41.20
2019-05-14T09:11:51.035Z,39.39
2019-05-14T09:12:51.026Z,38.95
2019-05-14T09:13:51.015Z,37.71
2019-05-14T09:14:51.010Z,37.06
2019-05-14T09:15:51.018Z,37.07
2019-05-14T09:16:51.450Z,38.54
2019-05-14T09:17:50.969Z,39.59
2019-05-14T09:18:50.964Z,39.91
2019-05-14T09:20:02.156Z,39.48
2019-05-14T09:20:51.945Z,39.28
2019-05-14T09:21:50.971Z,39.55
2019-05-14T09:22:50.940Z,37.40
2019-05-14T09:23:50.913Z,35.85
2019-05-14T09:24:50.901Z,34.84
2019-05-14T09:25:53.372Z,34.64
2019-05-14T09:26:50.880Z,34.22
2019-05-14T09:27:50.893Z,34.19
2019-05-14T09:28:50.869Z,35.65
2019-05-14T09:29:50.850Z,36.00
2019-05-14T09:30:50.859Z,36.24
2019-05-14T09:31:50.830Z,37.89
2019-05-14T09:32:50.841Z,38.56
2019-05-14T09:33:50.799Z,38.57
2019-05-14T09:34:50.794Z,41.22
2019-05-14T09:36:08.028Z,41.35
2019-05-14T09:36:51.775Z,41.16
2019-05-14T09:37:51.477Z,41.71
2019-05-14T09:38:50.750Z,42.35
2019-05-14T09:39:50.764Z,42.13
2019-05-14T09:41:06.636Z,43.95
2019-05-14T09:41:51.719Z,43.44
2019-05-14T09:42:50.720Z,42.43
2019-05-14T09:43:50.694Z,42.15
2019-05-14T09:44:50.704Z,42.76
2019-05-14T09:45:50.675Z,41.66
2019-05-14T09:46:50.670Z,42.21
2019-05-14T09:47:50.916Z,43.53
2019-05-14T09:48:50.690Z,43.44
2019-05-14T09:49:50.769Z,42.27
2019-05-14T09:50:50.785Z,40.66
2019-05-14T09:51:50.613Z,38.98
2019-05-14T09:52:50.608Z,38.35
2019-05-14T09:53:50.585Z,38.42
2019-05-14T09:54:50.591Z,37.60
2019-05-14T09:55:50.563Z,38.32
2019-05-14T09:56:50.584Z,39.08
2019-05-14T09:57:50.547Z,36.79
2019-05-14T09:58:50.532Z,36.93
2019-05-14T09:59:50.521Z,38.80
2019-05-14T10:00:50.523Z,37.12
2019-05-14T10:01:50.917Z,37.59
2019-05-14T10:02:50.487Z,36.02
2019-05-14T10:03:50.505Z,34.25
2019-05-14T10:04:50.489Z,34.04
2019-05-14T10:05:50.461Z,33.20
2019-05-14T10:06:50.444Z,31.96
2019-05-14T10:07:50.436Z,32.65
2019-05-14T10:08:50.437Z,31.82
2019-05-14T10:09:50.438Z,31.93
2019-05-14T10:10:50.438Z,31.26
2019-05-14T10:11:50.397Z,33.20
2019-05-14T10:12:56.319Z,32.50
2019-05-14T10:13:51.380Z,31.76
2019-05-14T10:14:59.216Z,30.43
2019-05-14T10:15:50.360Z,29.61
2019-05-14T10:16:50.349Z,30.71
2019-05-14T10:17:50.324Z,28.89
2019-05-14T10:18:52.803Z,30.65
2019-05-14T10:19:50.307Z,32.31
2019-05-14T10:20:50.331Z,36.35
2019-05-14T10:21:50.284Z,36.19
2019-05-14T10:22:50.281Z,36.08
2019-05-14T10:23:50.278Z,36.93
2019-05-14T10:24:50.269Z,38.64
2019-05-14T10:25:50.270Z,36.86
2019-05-14T10:26:50.468Z,37.21
2019-05-14T10:27:50.285Z,35.97
2019-05-14T10:28:50.289Z,35.70
2019-05-14T10:29:50.206Z,34.34
2019-05-14T10:30:50.496Z,33.31
2019-05-14T10:31:50.200Z,32.90
2019-05-14T10:32:50.169Z,33.79
2019-05-14T10:33:50.164Z,32.59
2019-05-14T10:34:50.165Z,33.15
2019-05-14T10:35:50.145Z,33.10
2019-05-14T10:36:50.155Z,34.14
2019-05-14T10:37:54.174Z,34.39
2019-05-14T10:38:50.112Z,35.82
2019-05-14T10:39:50.103Z,36.12
2019-05-14T10:40:50.082Z,36.66
2019-05-14T10:41:50.081Z,36.98
2019-05-14T10:42:50.077Z,38.92
2019-05-14T10:43:50.050Z,38.73
2019-05-14T10:44:50.058Z,38.63
2019-05-14T10:45:50.036Z,39.42
2019-05-14T10:46:50.038Z,38.66
2019-05-14T10:47:50.016Z,36.17
2019-05-14T10:48:50.006Z,36.49
2019-05-14T10:49:50.007Z,36.52
2019-05-14T10:50:57.352Z,36.44
2019-05-14T10:51:50.964Z,35.16
2019-05-14T10:52:50.004Z,36.07
2019-05-14T10:53:49.942Z,35.65
2019-05-14T10:54:55.998Z,36.46
2019-05-14T10:55:50.922Z,35.10
2019-05-14T10:56:50.038Z,35.58
2019-05-14T10:57:54.125Z,35.80
2019-05-14T10:58:49.916Z,35.72
2019-05-14T10:59:49.881Z,36.12
2019-05-14T11:00:49.874Z,36.34
2019-05-14T11:01:49.881Z,36.15
2019-05-14T11:02:49.863Z,36.27
2019-05-14T11:03:49.841Z,35.50
2019-05-14T11:04:49.838Z,36.51
2019-05-14T11:05:49.815Z,36.94
2019-05-14T11:06:49.810Z,36.94
2019-05-14T11:07:49.797Z,36.74
2019-05-14T11:08:49.791Z,36.88
2019-05-14T11:09:49.810Z,38.20
2019-05-14T11:10:50.020Z,37.88
2019-05-14T11:11:49.754Z,38.30
2019-05-14T11:12:50.694Z,38.18
2019-05-14T11:13:49.735Z,38.48
2019-05-14T11:14:49.725Z,37.13
2019-05-14T11:15:49.735Z,36.72
2019-05-14T11:16:49.703Z,36.63
2019-05-14T11:17:49.684Z,35.83
2019-05-14T11:18:50.186Z,36.54
2019-05-14T11:19:49.674Z,36.39
2019-05-14T11:20:51.409Z,34.37
2019-05-14T11:21:49.650Z,34.94
2019-05-14T11:22:49.644Z,35.66
2019-05-14T11:23:49.625Z,35.88
2019-05-14T11:24:49.609Z,36.61
2019-05-14T11:25:49.614Z,36.61
2019-05-14T11:26:49.601Z,36.65
2019-05-14T11:27:49.576Z,36.44
2019-05-14T11:28:49.569Z,37.35
2019-05-14T11:29:49.559Z,36.94
2019-05-14T11:30:49.702Z,37.05
2019-05-14T11:31:49.568Z,38.16
2019-05-14T11:32:49.532Z,36.44
2019-05-14T11:33:49.956Z,37.55
2019-05-14T11:34:49.506Z,36.65
2019-05-14T11:35:49.491Z,36.24
2019-05-14T11:36:49.892Z,36.44
2019-05-14T11:37:49.480Z,35.94
2019-05-14T11:38:50.758Z,35.43
2019-05-14T11:39:49.450Z,34.31
2019-05-14T11:40:49.721Z,34.47
2019-05-14T11:41:49.435Z,33.04
2019-05-14T11:42:49.658Z,35.36
2019-05-14T11:43:49.640Z,34.77
2019-05-14T11:44:49.392Z,35.58
2019-05-14T11:45:49.382Z,34.37
2019-05-14T11:46:56.996Z,34.28
2019-05-14T11:47:50.376Z,33.58
2019-05-14T11:48:49.429Z,33.17
2019-05-14T11:49:49.480Z,33.40
2019-05-14T11:50:49.496Z,33.81
2019-05-14T11:52:03.793Z,34.31
2019-05-14T11:52:50.306Z,33.29
2019-05-14T11:53:49.674Z,34.28
2019-05-14T11:54:49.545Z,34.17
2019-05-14T11:55:50.344Z,32.55
2019-05-14T11:56:49.262Z,32.36
2019-05-14T11:57:49.258Z,32.17
2019-05-14T11:58:49.251Z,32.59
2019-05-14T11:59:49.237Z,33.61
2019-05-14T12:00:49.225Z,33.50
2019-05-14T12:01:49.469Z,35.14
2019-05-14T12:02:49.206Z,35.14
2019-05-14T12:03:50.330Z,36.07
2019-05-14T12:04:49.181Z,34.05
2019-05-14T12:05:49.788Z,34.45
2019-05-14T12:06:49.186Z,34.34
2019-05-14T12:07:49.144Z,34.85
2019-05-14T12:08:49.141Z,34.23
2019-05-14T12:09:49.122Z,34.43
2019-05-14T12:10:49.124Z,34.64
2019-05-14T12:11:49.103Z,32.91
2019-05-14T12:12:49.276Z,33.03
2019-05-14T12:13:49.108Z,33.54
2019-05-14T12:14:49.072Z,33.54
2019-05-14T12:15:49.058Z,33.74
2019-05-14T12:16:49.549Z,34.34
2019-05-14T12:17:51.001Z,34.34
2019-05-14T12:18:49.023Z,34.36
2019-05-14T12:19:49.028Z,34.67
2019-05-14T12:20:49.833Z,35.19
2019-05-14T12:22:02.781Z,35.78
2019-05-14T12:22:49.989Z,35.07
2019-05-14T12:23:48.970Z,35.68
2019-05-14T12:24:49.530Z,36.27
2019-05-14T12:25:49.299Z,34.33
2019-05-14T12:26:49.207Z,34.72
2019-05-14T12:27:49.683Z,33.47
2019-05-14T12:28:49.537Z,32.87
2019-05-14T12:29:49.748Z,32.46
2019-05-14T12:30:49.157Z,31.65
2019-05-14T12:31:50.590Z,31.45
2019-05-14T12:32:50.079Z,32.59
2019-05-14T12:33:49.062Z,34.42
2019-05-14T12:34:55.917Z,35.43
2019-05-14T12:35:49.488Z,35.02
2019-05-14T12:36:49.426Z,34.82
2019-05-14T12:37:58.544Z,34.82
2019-05-14T12:38:59.161Z,34.42
2019-05-14T12:39:48.803Z,35.14
2019-05-14T12:40:48.800Z,34.62
2019-05-14T12:41:49.098Z,35.73
2019-05-14T12:42:49.883Z,35.33
2019-05-14T12:43:48.759Z,35.43
2019-05-14T12:44:48.751Z,35.73
2019-05-14T12:45:48.756Z,35.13
2019-05-14T12:46:49.088Z,36.44
2019-05-14T12:47:50.100Z,34.43
2019-05-14T12:48:55.767Z,34.74
2019-05-14T12:49:48.692Z,35.53
2019-05-14T12:50:49.082Z,35.38
2019-05-14T12:51:49.326Z,34.45
2019-05-14T12:52:48.734Z,34.77
2019-05-14T12:53:48.960Z,34.45